sensor_id;sensor_type;location;lat;lon;timestamp;pressure;altitude;pressure_sealevel;temperature;humidity
25947;BME280;13745;51.470;9.894;2023-02-10T00:00:54;101096.91;;;3.63;57.08
25947;BME280;13745;51.470;9.894;2023-02-10T00:03:39;101097.13;;;3.68;57.15
25947;BME280;13745;51.470;9.894;2023-02-10T00:06:25;101087.63;;;3.65;56.85
25947;BME280;13745;51.470;9.894;2023-02-10T00:09:12;101094.19;;;3.59;57.31
25947;BME280;13745;51.470;9.894;2023-02-10T00:11:58;101100.72;;;3.52;57.33
25947;BME280;13745;51.470;9.894;2023-02-10T00:14:44;101110.09;;;3.52;57.32
25947;BME280;13745;51.470;9.894;2023-02-10T00:17:30;101107.50;;;3.50;57.92
25947;BME280;13745;51.470;9.894;2023-02-10T00:20:16;101104.00;;;3.48;57.15
25947;BME280;13745;51.470;9.894;2023-02-10T00:23:02;101106.41;;;3.45;57.96
25947;BME280;13745;51.470;9.894;2023-02-10T00:25:47;101107.34;;;3.47;58.45
25947;BME280;13745;51.470;9.894;2023-02-10T00:28:33;101103.13;;;3.48;57.69
25947;BME280;13745;51.470;9.894;2023-02-10T00:31:19;101109.13;;;3.48;57.87
25947;BME280;13745;51.470;9.894;2023-02-10T00:34:07;101112.47;;;3.47;58.24
25947;BME280;13745;51.470;9.894;2023-02-10T00:36:53;101107.09;;;3.41;57.89
25947;BME280;13745;51.470;9.894;2023-02-10T00:39:38;101118.00;;;3.37;58.70
25947;BME280;13745;51.470;9.894;2023-02-10T00:42:23;101116.25;;;3.36;58.94
25947;BME280;13745;51.470;9.894;2023-02-10T00:45:09;101123.19;;;3.38;58.64
25947;BME280;13745;51.470;9.894;2023-02-10T00:47:54;101129.28;;;3.41;59.15
25947;BME280;13745;51.470;9.894;2023-02-10T00:50:40;101124.16;;;3.41;58.79
25947;BME280;13745;51.470;9.894;2023-02-10T00:53:26;101130.09;;;3.40;59.03
25947;BME280;13745;51.470;9.894;2023-02-10T00:56:12;101129.66;;;3.30;59.06
25947;BME280;13745;51.470;9.894;2023-02-10T00:58:57;101134.88;;;3.32;59.56
25947;BME280;13745;51.470;9.894;2023-02-10T01:01:42;101133.84;;;3.28;59.49
25947;BME280;13745;51.470;9.894;2023-02-10T01:04:27;101130.34;;;3.26;59.58
25947;BME280;13745;51.470;9.894;2023-02-10T01:07:14;101136.34;;;3.27;60.16
25947;BME280;13745;51.470;9.894;2023-02-10T01:09:59;101138.31;;;3.32;60.00
25947;BME280;13745;51.470;9.894;2023-02-10T01:12:44;101140.00;;;3.32;59.71
25947;BME280;13745;51.470;9.894;2023-02-10T01:15:29;101146.66;;;3.28;59.84
25947;BME280;13745;51.470;9.894;2023-02-10T01:18:14;101148.34;;;3.28;59.82
25947;BME280;13745;51.470;9.894;2023-02-10T01:21:05;101151.78;;;3.28;60.24
25947;BME280;13745;51.470;9.894;2023-02-10T01:23:52;101139.84;;;3.29;59.97
25947;BME280;13745;51.470;9.894;2023-02-10T01:26:37;101142.63;;;3.33;59.86
25947;BME280;13745;51.470;9.894;2023-02-10T01:29:22;101152.06;;;3.34;60.44
25947;BME280;13745;51.470;9.894;2023-02-10T01:32:07;101149.50;;;3.34;60.08
25947;BME280;13745;51.470;9.894;2023-02-10T01:34:52;101147.69;;;3.32;60.84
25947;BME280;13745;51.470;9.894;2023-02-10T01:37:37;101145.91;;;3.31;60.59
25947;BME280;13745;51.470;9.894;2023-02-10T01:40:26;101143.22;;;3.28;60.68
25947;BME280;13745;51.470;9.894;2023-02-10T01:43:14;101142.41;;;3.29;60.88
25947;BME280;13745;51.470;9.894;2023-02-10T01:45:59;101143.44;;;3.32;61.12
25947;BME280;13745;51.470;9.894;2023-02-10T01:48:44;101141.81;;;3.34;60.75
25947;BME280;13745;51.470;9.894;2023-02-10T01:51:36;101142.56;;;3.32;61.46
25947;BME280;13745;51.470;9.894;2023-02-10T01:54:24;101140.00;;;3.32;61.19
25947;BME280;13745;51.470;9.894;2023-02-10T01:57:13;101145.13;;;3.32;61.41
25947;BME280;13745;51.470;9.894;2023-02-10T02:00:00;101144.31;;;3.33;61.43
25947;BME280;13745;51.470;9.894;2023-02-10T02:02:55;101145.25;;;3.35;61.45
25947;BME280;13745;51.470;9.894;2023-02-10T02:05:42;101148.63;;;3.34;61.57
25947;BME280;13745;51.470;9.894;2023-02-10T02:08:30;101143.50;;;3.34;61.79
25947;BME280;13745;51.470;9.894;2023-02-10T02:11:21;101149.63;;;3.37;61.77
25947;BME280;13745;51.470;9.894;2023-02-10T02:14:28;101139.25;;;3.34;61.86
25947;BME280;13745;51.470;9.894;2023-02-10T02:17:20;101134.25;;;3.37;61.82
25947;BME280;13745;51.470;9.894;2023-02-10T02:20:23;101146.13;;;3.35;62.22
25947;BME280;13745;51.470;9.894;2023-02-10T02:23:41;101146.88;;;3.33;62.05
25947;BME280;13745;51.470;9.894;2023-02-10T02:26:54;101147.69;;;3.32;62.69
25947;BME280;13745;51.470;9.894;2023-02-10T02:30:09;101151.13;;;3.32;62.31
25947;BME280;13745;51.470;9.894;2023-02-10T02:33:04;101146.94;;;3.34;62.74
25947;BME280;13745;51.470;9.894;2023-02-10T02:35:57;101136.69;;;3.34;63.13
25947;BME280;13745;51.470;9.894;2023-02-10T02:38:44;101128.13;;;3.34;62.91
25947;BME280;13745;51.470;9.894;2023-02-10T02:41:31;101131.44;;;3.31;63.00
25947;BME280;13745;51.470;9.894;2023-02-10T02:44:16;101132.22;;;3.30;62.83
25947;BME280;13745;51.470;9.894;2023-02-10T02:47:05;101134.72;;;3.29;62.95
25947;BME280;13745;51.470;9.894;2023-02-10T02:50:00;101137.44;;;3.32;63.62
25947;BME280;13745;51.470;9.894;2023-02-10T02:53:01;101144.91;;;3.27;63.54
25947;BME280;13745;51.470;9.894;2023-02-10T02:55:55;101149.03;;;3.24;63.78
25947;BME280;13745;51.470;9.894;2023-02-10T02:58:51;101155.91;;;3.25;63.88
25947;BME280;13745;51.470;9.894;2023-02-10T03:01:42;101158.47;;;3.25;63.91
25947;BME280;13745;51.470;9.894;2023-02-10T03:04:30;101150.03;;;3.27;64.36
25947;BME280;13745;51.470;9.894;2023-02-10T03:07:19;101153.34;;;3.25;64.24
25947;BME280;13745;51.470;9.894;2023-02-10T03:10:05;101154.97;;;3.23;64.26
25947;BME280;13745;51.470;9.894;2023-02-10T03:12:50;101166.81;;;3.21;64.80
25947;BME280;13745;51.470;9.894;2023-02-10T03:15:36;101162.66;;;3.23;64.77
25947;BME280;13745;51.470;9.894;2023-02-10T03:18:20;101161.91;;;3.25;64.64
25947;BME280;13745;51.470;9.894;2023-02-10T03:21:05;101168.78;;;3.26;64.78
25947;BME280;13745;51.470;9.894;2023-02-10T03:23:52;101162.72;;;3.24;65.09
25947;BME280;13745;51.470;9.894;2023-02-10T03:26:37;101162.78;;;3.26;65.05
25947;BME280;13745;51.470;9.894;2023-02-10T03:29:22;101174.66;;;3.24;64.87
25947;BME280;13745;51.470;9.894;2023-02-10T03:32:07;101172.97;;;3.24;65.15
25947;BME280;13745;51.470;9.894;2023-02-10T03:34:52;101178.91;;;3.23;64.93
25947;BME280;13745;51.470;9.894;2023-02-10T03:37:37;101182.94;;;3.18;65.53
25947;BME280;13745;51.470;9.894;2023-02-10T03:40:24;101179.28;;;3.13;65.04
25947;BME280;13745;51.470;9.894;2023-02-10T03:43:09;101178.41;;;3.13;65.58
25947;BME280;13745;51.470;9.894;2023-02-10T03:45:54;101175.03;;;3.14;65.43
25947;BME280;13745;51.470;9.894;2023-02-10T03:48:39;101169.91;;;3.14;65.56
25947;BME280;13745;51.470;9.894;2023-02-10T03:51:24;101171.47;;;3.10;66.00
25947;BME280;13745;51.470;9.894;2023-02-10T03:54:09;101175.84;;;3.13;65.55
25947;BME280;13745;51.470;9.894;2023-02-10T03:56:55;101173.16;;;3.09;65.87
25947;BME280;13745;51.470;9.894;2023-02-10T03:59:40;101172.34;;;3.10;65.95
25947;BME280;13745;51.470;9.894;2023-02-10T04:02:25;101183.53;;;3.13;66.24
25947;BME280;13745;51.470;9.894;2023-02-10T04:05:11;101173.50;;;3.17;66.24
25947;BME280;13745;51.470;9.894;2023-02-10T04:07:56;101176.19;;;3.20;66.45
25947;BME280;13745;51.470;9.894;2023-02-10T04:10:41;101176.47;;;3.26;65.81
25947;BME280;13745;51.470;9.894;2023-02-10T04:13:27;101175.00;;;3.31;66.17
25947;BME280;13745;51.470;9.894;2023-02-10T04:16:15;101178.56;;;3.35;66.29
25947;BME280;13745;51.470;9.894;2023-02-10T04:19:03;101175.19;;;3.36;65.99
25947;BME280;13745;51.470;9.894;2023-02-10T04:21:48;101180.38;;;3.37;66.18
25947;BME280;13745;51.470;9.894;2023-02-10T04:24:33;101169.94;;;3.33;65.85
25947;BME280;13745;51.470;9.894;2023-02-10T04:27:18;101175.94;;;3.33;66.35
25947;BME280;13745;51.470;9.894;2023-02-10T04:30:05;101174.09;;;3.31;66.12
25947;BME280;13745;51.470;9.894;2023-02-10T04:32:51;101184.44;;;3.32;66.33
25947;BME280;13745;51.470;9.894;2023-02-10T04:35:36;101179.31;;;3.32;66.61
25947;BME280;13745;51.470;9.894;2023-02-10T04:38:22;101187.88;;;3.33;66.17
25947;BME280;13745;51.470;9.894;2023-02-10T04:41:07;101188.75;;;3.33;66.60
25947;BME280;13745;51.470;9.894;2023-02-10T04:43:52;101191.50;;;3.38;66.84
25947;BME280;13745;51.470;9.894;2023-02-10T04:46:38;101195.75;;;3.37;66.48
25947;BME280;13745;51.470;9.894;2023-02-10T04:49:24;101195.75;;;3.37;66.38
25947;BME280;13745;51.470;9.894;2023-02-10T04:52:09;101202.56;;;3.37;66.75
25947;BME280;13745;51.470;9.894;2023-02-10T04:54:54;101194.81;;;3.35;66.62
25947;BME280;13745;51.470;9.894;2023-02-10T04:57:39;101202.16;;;3.28;66.75
25947;BME280;13745;51.470;9.894;2023-02-10T05:00:24;101196.75;;;3.22;66.60
25947;BME280;13745;51.470;9.894;2023-02-10T05:03:11;101190.56;;;3.17;67.26
25947;BME280;13745;51.470;9.894;2023-02-10T05:05:56;101181.78;;;3.12;66.73
25947;BME280;13745;51.470;9.894;2023-02-10T05:08:41;101178.22;;;3.08;67.20
25947;BME280;13745;51.470;9.894;2023-02-10T05:11:27;101180.75;;;3.08;67.25
25947;BME280;13745;51.470;9.894;2023-02-10T05:14:12;101185.59;;;3.02;67.25
25947;BME280;13745;51.470;9.894;2023-02-10T05:16:56;101182.09;;;3.00;67.32
25947;BME280;13745;51.470;9.894;2023-02-10T05:19:43;101181.00;;;2.95;67.27
25947;BME280;13745;51.470;9.894;2023-02-10T05:22:28;101188.47;;;2.90;67.37
25947;BME280;13745;51.470;9.894;2023-02-10T05:25:14;101182.19;;;2.84;67.51
25947;BME280;13745;51.470;9.894;2023-02-10T05:27:58;101178.00;;;2.86;68.15
25947;BME280;13745;51.470;9.894;2023-02-10T05:30:43;101188.94;;;2.81;67.87
25947;BME280;13745;51.470;9.894;2023-02-10T05:33:28;101189.56;;;2.77;67.75
25947;BME280;13745;51.470;9.894;2023-02-10T05:36:15;101186.94;;;2.76;68.39
25947;BME280;13745;51.470;9.894;2023-02-10T05:39:00;101177.44;;;2.73;68.20
25947;BME280;13745;51.470;9.894;2023-02-10T05:42:03;101182.47;;;2.72;68.39
25947;BME280;13745;51.470;9.894;2023-02-10T05:44:48;101174.66;;;2.69;67.90
25947;BME280;13745;51.470;9.894;2023-02-10T05:47:33;101184.97;;;2.70;68.50
25947;BME280;13745;51.470;9.894;2023-02-10T05:50:18;101188.47;;;2.72;67.93
25947;BME280;13745;51.470;9.894;2023-02-10T05:53:05;101193.59;;;2.72;67.83
25947;BME280;13745;51.470;9.894;2023-02-10T05:55:50;101199.59;;;2.73;68.43
25947;BME280;13745;51.470;9.894;2023-02-10T05:58:35;101201.38;;;2.74;68.25
25947;BME280;13745;51.470;9.894;2023-02-10T06:01:20;101196.97;;;2.71;68.47
25947;BME280;13745;51.470;9.894;2023-02-10T06:04:05;101196.00;;;2.69;68.19
25947;BME280;13745;51.470;9.894;2023-02-10T06:06:50;101200.25;;;2.69;68.34
25947;BME280;13745;51.470;9.894;2023-02-10T06:09:37;101213.28;;;2.73;68.01
25947;BME280;13745;51.470;9.894;2023-02-10T06:12:23;101210.06;;;2.77;68.71
25947;BME280;13745;51.470;9.894;2023-02-10T06:15:08;101223.72;;;2.78;68.98
25947;BME280;13745;51.470;9.894;2023-02-10T06:17:53;101223.09;;;2.82;68.36
25947;BME280;13745;51.470;9.894;2023-02-10T06:20:38;101230.84;;;2.84;68.84
25947;BME280;13745;51.470;9.894;2023-02-10T06:23:24;101224.97;;;2.86;68.66
25947;BME280;13745;51.470;9.894;2023-02-10T06:26:11;101237.72;;;2.85;68.76
25947;BME280;13745;51.470;9.894;2023-02-10T06:28:56;101238.53;;;2.84;68.78
25947;BME280;13745;51.470;9.894;2023-02-10T06:31:41;101246.13;;;2.82;69.13
25947;BME280;13745;51.470;9.894;2023-02-10T06:34:26;101250.44;;;2.83;69.16
25947;BME280;13745;51.470;9.894;2023-02-10T06:37:11;101253.94;;;2.85;68.84
25947;BME280;13745;51.470;9.894;2023-02-10T06:39:56;101257.97;;;2.80;69.19
25947;BME280;13745;51.470;9.894;2023-02-10T06:42:43;101259.38;;;2.73;68.62
25947;BME280;13745;51.470;9.894;2023-02-10T06:45:28;101256.72;;;2.72;68.81
25947;BME280;13745;51.470;9.894;2023-02-10T06:48:13;101257.31;;;2.66;68.84
25947;BME280;13745;51.470;9.894;2023-02-10T06:50:58;101255.31;;;2.61;69.69
25947;BME280;13745;51.470;9.894;2023-02-10T06:53:43;101252.53;;;2.56;68.85
25947;BME280;13745;51.470;9.894;2023-02-10T06:56:29;101258.56;;;2.57;69.59
25947;BME280;13745;51.470;9.894;2023-02-10T06:59:15;101249.69;;;2.50;69.38
25947;BME280;13745;51.470;9.894;2023-02-10T07:02:00;101250.78;;;2.55;68.98
25947;BME280;13745;51.470;9.894;2023-02-10T07:04:46;101249.00;;;2.54;69.24
25947;BME280;13745;51.470;9.894;2023-02-10T07:07:31;101250.94;;;2.58;68.99
25947;BME280;13745;51.470;9.894;2023-02-10T07:10:16;101250.19;;;2.61;68.91
25947;BME280;13745;51.470;9.894;2023-02-10T07:13:01;101262.19;;;2.62;68.87
25947;BME280;13745;51.470;9.894;2023-02-10T07:15:48;101261.25;;;2.60;69.44
25947;BME280;13745;51.470;9.894;2023-02-10T07:18:33;101265.31;;;2.56;68.96
25947;BME280;13745;51.470;9.894;2023-02-10T07:21:18;101267.00;;;2.56;69.87
25947;BME280;13745;51.470;9.894;2023-02-10T07:24:03;101268.78;;;2.57;69.89
25947;BME280;13745;51.470;9.894;2023-02-10T07:26:49;101272.38;;;2.60;69.65
25947;BME280;13745;51.470;9.894;2023-02-10T07:29:34;101278.44;;;2.62;69.40
25947;BME280;13745;51.470;9.894;2023-02-10T07:32:20;101283.13;;;2.71;69.74
25947;BME280;13745;51.470;9.894;2023-02-10T07:35:05;101281.88;;;2.80;69.84
25947;BME280;13745;51.470;9.894;2023-02-10T07:37:50;101301.16;;;2.90;69.52
25947;BME280;13745;51.470;9.894;2023-02-10T07:40:35;101292.06;;;2.97;69.33
25947;BME280;13745;51.470;9.894;2023-02-10T07:43:20;101298.72;;;3.11;69.34
25947;BME280;13745;51.470;9.894;2023-02-10T07:46:15;101299.22;;;3.22;69.36
25947;BME280;13745;51.470;9.894;2023-02-10T07:49:01;101307.97;;;3.25;69.17
25947;BME280;13745;51.470;9.894;2023-02-10T07:51:46;101319.38;;;3.32;69.15
25947;BME280;13745;51.470;9.894;2023-02-10T07:54:31;101297.91;;;3.30;69.44
25947;BME280;13745;51.470;9.894;2023-02-10T07:57:17;101305.97;;;3.37;69.39
25947;BME280;13745;51.470;9.894;2023-02-10T08:00:02;101296.00;;;3.44;69.51
25947;BME280;13745;51.470;9.894;2023-02-10T08:02:56;101299.66;;;3.49;69.54
25947;BME280;13745;51.470;9.894;2023-02-10T08:05:42;101298.34;;;3.57;69.02
25947;BME280;13745;51.470;9.894;2023-02-10T08:08:28;101289.09;;;3.60;69.27
25947;BME280;13745;51.470;9.894;2023-02-10T08:11:13;101294.56;;;3.68;69.40
25947;BME280;13745;51.470;9.894;2023-02-10T08:13:58;101287.88;;;3.72;69.15
25947;BME280;13745;51.470;9.894;2023-02-10T08:16:43;101299.00;;;3.72;69.49
25947;BME280;13745;51.470;9.894;2023-02-10T08:19:29;101307.66;;;3.74;69.48
25947;BME280;13745;51.470;9.894;2023-02-10T08:22:15;101310.34;;;3.77;69.12
25947;BME280;13745;51.470;9.894;2023-02-10T08:25:00;101311.28;;;3.79;69.64
25947;BME280;13745;51.470;9.894;2023-02-10T08:27:45;101306.78;;;3.74;69.32
25947;BME280;13745;51.470;9.894;2023-02-10T08:30:30;101313.25;;;3.65;69.24
25947;BME280;13745;51.470;9.894;2023-02-10T08:33:15;101319.91;;;3.62;69.51
25947;BME280;13745;51.470;9.894;2023-02-10T08:36:03;101319.66;;;3.56;69.57
25947;BME280;13745;51.470;9.894;2023-02-10T08:38:50;101324.63;;;3.53;69.48
25947;BME280;13745;51.470;9.894;2023-02-10T08:41:36;101328.22;;;3.56;69.48
25947;BME280;13745;51.470;9.894;2023-02-10T08:44:21;101323.09;;;3.56;69.56
25947;BME280;13745;51.470;9.894;2023-02-10T08:47:06;101328.28;;;3.58;69.40
25947;BME280;13745;51.470;9.894;2023-02-10T08:49:54;101323.16;;;3.58;69.17
25947;BME280;13745;51.470;9.894;2023-02-10T08:52:39;101323.28;;;3.61;69.20
25947;BME280;13745;51.470;9.894;2023-02-10T08:55:25;101327.59;;;3.62;69.34
25947;BME280;13745;51.470;9.894;2023-02-10T08:58:10;101331.28;;;3.67;69.34
25947;BME280;13745;51.470;9.894;2023-02-10T09:00:56;101340.25;;;3.77;69.09
25947;BME280;13745;51.470;9.894;2023-02-10T09:03:42;101344.00;;;3.83;69.01
25947;BME280;13745;51.470;9.894;2023-02-10T09:06:30;101346.91;;;3.91;68.89
25947;BME280;13745;51.470;9.894;2023-02-10T09:09:19;101341.44;;;4.03;69.09
25947;BME280;13745;51.470;9.894;2023-02-10T09:12:07;101349.00;;;4.19;68.70
25947;BME280;13745;51.470;9.894;2023-02-10T09:14:54;101346.78;;;4.27;68.34
25947;BME280;13745;51.470;9.894;2023-02-10T09:17:39;101344.66;;;4.37;68.37
25947;BME280;13745;51.470;9.894;2023-02-10T09:20:24;101341.81;;;4.50;68.35
25947;BME280;13745;51.470;9.894;2023-02-10T09:23:09;101344.13;;;4.64;68.13
25947;BME280;13745;51.470;9.894;2023-02-10T09:25:54;101347.31;;;4.79;67.89
25947;BME280;13745;51.470;9.894;2023-02-10T09:28:41;101346.91;;;4.89;67.61
25947;BME280;13745;51.470;9.894;2023-02-10T09:31:26;101349.41;;;5.08;67.53
25947;BME280;13745;51.470;9.894;2023-02-10T09:34:11;101342.47;;;5.28;67.16
25947;BME280;13745;51.470;9.894;2023-02-10T09:36:55;101344.25;;;5.52;67.11
25947;BME280;13745;51.470;9.894;2023-02-10T09:39:42;101339.06;;;5.73;66.85
25947;BME280;13745;51.470;9.894;2023-02-10T09:42:45;101334.94;;;5.99;66.39
25947;BME280;13745;51.470;9.894;2023-02-10T09:45:37;101332.56;;;6.29;65.84
25947;BME280;13745;51.470;9.894;2023-02-10T09:48:29;101325.78;;;6.55;65.59
25947;BME280;13745;51.470;9.894;2023-02-10T09:51:27;101332.16;;;7.18;65.00
25947;BME280;13745;51.470;9.894;2023-02-10T09:54:19;101329.44;;;7.98;63.25
25947;BME280;13745;51.470;9.894;2023-02-10T09:57:08;101320.59;;;9.19;62.12
25947;BME280;13745;51.470;9.894;2023-02-10T09:59:56;101315.38;;;11.41;59.45
25947;BME280;13745;51.470;9.894;2023-02-10T10:02:46;101308.00;;;13.41;56.34
25947;BME280;13745;51.470;9.894;2023-02-10T10:05:43;101306.75;;;15.21;53.63
25947;BME280;13745;51.470;9.894;2023-02-10T10:08:34;101310.66;;;16.51;51.67
25947;BME280;13745;51.470;9.894;2023-02-10T10:11:25;101309.16;;;17.32;50.14
25947;BME280;13745;51.470;9.894;2023-02-10T10:14:16;101312.06;;;18.53;48.38
25947;BME280;13745;51.470;9.894;2023-02-10T10:17:30;101310.06;;;20.14;46.74
25947;BME280;13745;51.470;9.894;2023-02-10T10:20:28;101313.09;;;21.76;43.91
25947;BME280;13745;51.470;9.894;2023-02-10T10:26:29;101305.53;;;24.52;40.53
25947;BME280;13745;51.470;9.894;2023-02-10T10:29:28;101297.81;;;25.51;39.05
25947;BME280;13745;51.470;9.894;2023-02-10T10:32:18;101304.50;;;26.55;36.91
25947;BME280;13745;51.470;9.894;2023-02-10T10:35:15;101297.72;;;27.20;36.39
25947;BME280;13745;51.470;9.894;2023-02-10T10:38:08;101293.28;;;27.87;35.48
25947;BME280;13745;51.470;9.894;2023-02-10T10:41:00;101284.47;;;28.49;34.48
25947;BME280;13745;51.470;9.894;2023-02-10T10:43:48;101281.91;;;29.38;32.94
25947;BME280;13745;51.470;9.894;2023-02-10T10:46:43;101285.75;;;28.26;33.84
25947;BME280;13745;51.470;9.894;2023-02-10T10:49:30;101283.88;;;26.22;34.71
25947;BME280;13745;51.470;9.894;2023-02-10T10:52:25;101276.72;;;26.43;35.02
25947;BME280;13745;51.470;9.894;2023-02-10T10:55:17;101274.00;;;26.62;34.02
25947;BME280;13745;51.470;9.894;2023-02-10T10:58:10;101273.19;;;27.31;33.72
25947;BME280;13745;51.470;9.894;2023-02-10T11:01:00;101273.97;;;25.88;34.36
25947;BME280;13745;51.470;9.894;2023-02-10T11:03:46;101281.91;;;23.77;35.50
25947;BME280;13745;51.470;9.894;2023-02-10T11:06:33;101279.44;;;22.13;37.18
25947;BME280;13745;51.470;9.894;2023-02-10T11:09:22;101278.69;;;20.80;38.16
25947;BME280;13745;51.470;9.894;2023-02-10T11:12:14;101291.84;;;19.62;39.38
25947;BME280;13745;51.470;9.894;2023-02-10T11:15:00;101293.66;;;18.55;40.19
25947;BME280;13745;51.470;9.894;2023-02-10T11:17:45;101291.03;;;17.90;40.81
25947;BME280;13745;51.470;9.894;2023-02-10T11:20:32;101284.78;;;17.21;41.68
25947;BME280;13745;51.470;9.894;2023-02-10T11:23:17;101281.13;;;18.11;40.70
25947;BME280;13745;51.470;9.894;2023-02-10T11:26:02;101273.44;;;18.59;40.18
25947;BME280;13745;51.470;9.894;2023-02-10T11:28:50;101271.41;;;18.77;40.07
25947;BME280;13745;51.470;9.894;2023-02-10T11:31:35;101272.34;;;20.51;38.46
25947;BME280;13745;51.470;9.894;2023-02-10T11:34:21;101258.22;;;22.45;36.39
25947;BME280;13745;51.470;9.894;2023-02-10T11:37:09;101251.31;;;24.59;34.48
25947;BME280;13745;51.470;9.894;2023-02-10T11:39:55;101247.41;;;25.88;33.66
25947;BME280;13745;51.470;9.894;2023-02-10T11:42:45;101244.81;;;27.63;32.11
25947;BME280;13745;51.470;9.894;2023-02-10T11:45:32;101231.50;;;28.58;31.10
25947;BME280;13745;51.470;9.894;2023-02-10T11:48:19;101230.53;;;29.47;30.50
25947;BME280;13745;51.470;9.894;2023-02-10T11:51:12;101234.38;;;30.54;29.40
25947;BME280;13745;51.470;9.894;2023-02-10T11:53:58;101231.75;;;31.69;28.92
25947;BME280;13745;51.470;9.894;2023-02-10T11:56:49;101218.13;;;32.21;28.82
25947;BME280;13745;51.470;9.894;2023-02-10T12:00:02;101216.59;;;33.00;28.45
25947;BME280;13745;51.470;9.894;2023-02-10T12:03:17;101216.00;;;33.75;27.76
25947;BME280;13745;51.470;9.894;2023-02-10T12:06:15;101217.16;;;33.61;27.17
25947;BME280;13745;51.470;9.894;2023-02-10T12:09:10;101212.84;;;33.59;27.32
25947;BME280;13745;51.470;9.894;2023-02-10T12:12:05;101213.84;;;33.69;26.84
25947;BME280;13745;51.470;9.894;2023-02-10T12:14:59;101201.66;;;34.08;26.51
25947;BME280;13745;51.470;9.894;2023-02-10T12:17:55;101218.22;;;34.03;27.22
25947;BME280;13745;51.470;9.894;2023-02-10T12:20:57;101214.19;;;33.98;26.90
25947;BME280;13745;51.470;9.894;2023-02-10T12:23:57;101207.69;;;34.44;26.60
25947;BME280;13745;51.470;9.894;2023-02-10T12:26:45;101214.00;;;34.75;26.05
25947;BME280;13745;51.470;9.894;2023-02-10T12:29:43;101205.72;;;34.67;26.12
25947;BME280;13745;51.470;9.894;2023-02-10T12:32:38;101208.41;;;34.87;25.51
25947;BME280;13745;51.470;9.894;2023-02-10T12:35:36;101204.25;;;34.83;25.56
25947;BME280;13745;51.470;9.894;2023-02-10T12:38:40;101197.44;;;35.00;25.57
25947;BME280;13745;51.470;9.894;2023-02-10T12:41:37;101199.03;;;35.33;25.22
25947;BME280;13745;51.470;9.894;2023-02-10T12:44:34;101194.53;;;35.84;25.00
25947;BME280;13745;51.470;9.894;2023-02-10T12:47:31;101184.94;;;36.49;24.44
25947;BME280;13745;51.470;9.894;2023-02-10T12:50:37;101186.59;;;36.89;24.21
25947;BME280;13745;51.470;9.894;2023-02-10T12:53:28;101183.84;;;37.45;23.63
25947;BME280;13745;51.470;9.894;2023-02-10T12:56:20;101181.59;;;37.68;23.39
25947;BME280;13745;51.470;9.894;2023-02-10T12:59:12;101182.69;;;37.75;23.10
25947;BME280;13745;51.470;9.894;2023-02-10T13:02:02;101189.03;;;38.11;23.53
25947;BME280;13745;51.470;9.894;2023-02-10T13:04:49;101182.66;;;38.20;22.97
25947;BME280;13745;51.470;9.894;2023-02-10T13:07:43;101180.63;;;38.22;22.95
25947;BME280;13745;51.470;9.894;2023-02-10T13:10:32;101183.84;;;38.18;22.84
25947;BME280;13745;51.470;9.894;2023-02-10T13:13:24;101183.22;;;37.33;22.94
25947;BME280;13745;51.470;9.894;2023-02-10T13:16:13;101183.53;;;36.25;23.47
25947;BME280;13745;51.470;9.894;2023-02-10T13:19:03;101182.25;;;35.30;23.92
25947;BME280;13745;51.470;9.894;2023-02-10T13:21:55;101184.03;;;34.68;24.09
25947;BME280;13745;51.470;9.894;2023-02-10T13:24:46;101174.50;;;34.00;24.91
25947;BME280;13745;51.470;9.894;2023-02-10T13:27:40;101173.72;;;33.32;25.25
25947;BME280;13745;51.470;9.894;2023-02-10T13:30:48;101175.44;;;32.53;25.17
25947;BME280;13745;51.470;9.894;2023-02-10T13:33:38;101179.22;;;31.79;25.91
25947;BME280;13745;51.470;9.894;2023-02-10T13:36:28;101176.03;;;31.10;26.25
25947;BME280;13745;51.470;9.894;2023-02-10T13:39:16;101175.53;;;30.53;26.87
25947;BME280;13745;51.470;9.894;2023-02-10T13:42:04;101177.84;;;29.21;27.38
25947;BME280;13745;51.470;9.894;2023-02-10T13:44:57;101177.72;;;27.55;27.97
25947;BME280;13745;51.470;9.894;2023-02-10T13:47:48;101184.84;;;26.53;28.72
25947;BME280;13745;51.470;9.894;2023-02-10T13:50:41;101179.25;;;25.29;29.40
25947;BME280;13745;51.470;9.894;2023-02-10T13:53:28;101175.59;;;24.08;30.17
25947;BME280;13745;51.470;9.894;2023-02-10T13:56:22;101169.34;;;22.93;31.24
25947;BME280;13745;51.470;9.894;2023-02-10T13:59:23;101167.78;;;22.07;32.01
25947;BME280;13745;51.470;9.894;2023-02-10T14:02:11;101166.47;;;21.03;32.95
25947;BME280;13745;51.470;9.894;2023-02-10T14:05:01;101165.31;;;20.10;33.66
25947;BME280;13745;51.470;9.894;2023-02-10T14:07:46;101168.50;;;19.45;34.18
25947;BME280;13745;51.470;9.894;2023-02-10T14:10:33;101177.38;;;18.95;34.77
25947;BME280;13745;51.470;9.894;2023-02-10T14:13:21;101166.00;;;18.43;34.93
25947;BME280;13745;51.470;9.894;2023-02-10T14:16:27;101167.00;;;17.81;35.41
25947;BME280;13745;51.470;9.894;2023-02-10T14:19:20;101162.75;;;16.98;35.02
25947;BME280;13745;51.470;9.894;2023-02-10T14:22:21;101156.03;;;16.70;36.10
25947;BME280;13745;51.470;9.894;2023-02-10T14:25:16;101155.34;;;16.46;36.80
25947;BME280;13745;51.470;9.894;2023-02-10T14:28:03;101160.81;;;16.19;37.30
25947;BME280;13745;51.470;9.894;2023-02-10T14:30:52;101156.81;;;15.64;38.20
25947;BME280;13745;51.470;9.894;2023-02-10T14:33:38;101154.38;;;15.11;39.07
25947;BME280;13745;51.470;9.894;2023-02-10T14:36:24;101152.72;;;14.79;39.57
25947;BME280;13745;51.470;9.894;2023-02-10T14:39:14;101151.00;;;14.34;39.72
25947;BME280;13745;51.470;9.894;2023-02-10T14:42:04;101150.97;;;13.84;40.63
25947;BME280;13745;51.470;9.894;2023-02-10T14:44:50;101145.63;;;13.45;41.03
25947;BME280;13745;51.470;9.894;2023-02-10T14:47:38;101137.69;;;13.18;41.41
25947;BME280;13745;51.470;9.894;2023-02-10T14:50:30;101139.31;;;12.94;41.79
25947;BME280;13745;51.470;9.894;2023-02-10T14:53:17;101135.69;;;12.71;42.18